• Join FlightAware (Why Join?)
  • Login
  • US Flag 
08:48AM EDT


 

Airport Tracker/Info


-or-


 

Live Flight TrackerFlight Track Log ✈ N680AN ✈ 10-May-2013 ✈ KMCO - KDFW

Flight Track Log - Related Links

Times and Time Zones

All times are in EDT time to prevent confusion due to time zone crossing. See the N680AN flight status page for this flight to view local times or setup timezone preferences in your user account.

Time Position Orientation Groundspeed Altitude Reporting Facility
EDT Latitude Longitude Course Direction KTS MPH feet Rate Location/Type
02:44PM 28.4333 -81.3167 270° West 156 180 600  Level Orlando TRACON
02:45PM 28.4167 -81.3500 240° Southwest 183 211 2,100 2,220 Climbing Orlando TRACON
02:46PM 28.4000 -81.4167 254° West 255 293 4,400 3,000 Climbing Orlando TRACON
02:47PM 28.4167 -81.6548 270° West  Level FlightAware Approximate
02:47PM 28.4000 -81.5000 270° West 266 306 7,900  Level Orlando TRACON
02:48PM 28.4167 -81.7731 270° West  Level FlightAware Approximate
02:48PM 28.4000 -81.5833 270° West 277 319 11,300  Level Orlando TRACON
02:49PM 28.4167 -81.8913 270° West  Level FlightAware Approximate
02:50PM 28.4167 -82.0096 270° West  Level FlightAware Approximate
02:50PM 28.3786 -81.7531 262° West 311 358 15,000  Level Jacksonville Center
02:51PM 28.3669 -81.8664 263° West 344 396 17,300 2,040 Climbing Jacksonville Center
02:52PM 28.3806 -81.9842 278° West 360 414 19,100 1,800 Climbing Jacksonville Center
02:53PM 28.4000 -82.1019 281° West 368 423 20,900 1,800 Climbing Jacksonville Center
02:54PM 28.4217 -82.2247 281° West 381 438 22,700 1,620 Climbing Jacksonville Center
02:55PM 28.4389 -82.3378 280° West 406 467 24,200 1,500 Climbing Jacksonville Center
02:56PM 28.4581 -82.4675 280° West 411 473 25,800 1,380 Climbing Jacksonville Center
02:57PM 28.5169 -82.5761 302° West 402 463 27,000 960 Climbing Jacksonville Center
02:58PM 28.6131 -82.6656 321° Northwest 413 475 27,800 480 Climbing Jacksonville Center
02:59PM 28.7239 -82.7625 323° Northwest 427 491 28,000 60 Climbing Jacksonville Center
03:00PM 28.8322 -82.8547 323° Northwest 464 534 28,000  Level Jacksonville Center
03:01PM 28.9408 -82.9494 323° Northwest 485 558 28,000  Level Jacksonville Center
03:02PM 29.0494 -83.0422 323° Northwest 491 565 28,000  Level Jacksonville Center
03:03PM 29.1556 -83.1350 323° Northwest 486 559 28,000  Level Jacksonville Center
03:04PM 29.2681 -83.2306 323° Northwest 486 559 28,000  Level Jacksonville Center
03:05PM 29.3744 -83.3217 323° Northwest 486 559 28,000  Level Jacksonville Center
03:06PM 29.4847 -83.4197 322° Northwest 486 559 28,000  Level Jacksonville Center
03:07PM 29.5928 -83.5136 323° Northwest 486 559 28,000  Level Jacksonville Center
03:08PM 29.6986 -83.6122 321° Northwest 486 559 28,000  Level Jacksonville Center
03:09PM 29.7708 -83.7419 303° West 477 549 28,000  Level Jacksonville Center
03:10PM 29.8347 -83.8767 299° West 477 549 28,000  Level Jacksonville Center
03:11PM 29.8942 -84.0161 296° West 482 555 28,000  Level Jacksonville Center
03:12PM 29.9597 -84.1536 299° West 482 555 28,000  Level Jacksonville Center
03:13PM 30.0147 -84.2767 297° West 482 555 28,000  Level Jacksonville Center
03:14PM 30.0778 -84.4144 298° West 482 555 28,000  Level Jacksonville Center
03:15PM 30.1389 -84.5500 298° West 482 555 28,000  Level Jacksonville Center
03:16PM 30.1975 -84.6878 296° West 476 548 28,000  Level Jacksonville Center
03:17PM 30.2581 -84.8261 297° West 476 548 28,000  Level Jacksonville Center
03:18PM 30.3186 -84.9644 297° West 476 548 28,000  Level Jacksonville Center
03:19PM 30.3769 -85.1006 296° West 470 541 28,000  Level Jacksonville Center
03:20PM 30.4350 -85.2367 296° West 470 541 28,000  Level Jacksonville Center
03:21PM 30.4908 -85.3658 297° West 464 534 28,000  Level Jacksonville Center
03:22PM 30.5447 -85.4950 296° West 452 520 28,000  Level Jacksonville Center
03:23PM 30.5986 -85.6197 297° West 442 509 28,000  Level Jacksonville Center
03:24PM 30.6542 -85.7492 297° West 442 509 28,000  Level Jacksonville Center
03:25PM 30.7075 -85.8764 296° West 442 509 28,000  Level Jacksonville Center
03:26PM 30.7631 -86.0039 297° West 442 509 28,000  Level Jacksonville Center
03:27PM 30.8161 -86.1314 296° West 437 503 28,000  Level Jacksonville Center
03:28PM 30.8714 -86.2544 298° West 437 503 28,000  Level Jacksonville Center
03:29PM 30.9244 -86.3747 297° West 426 490 28,000  Level Jacksonville Center
03:30PM 30.9733 -86.4953 295° West 415 478 28,000  Level Jacksonville Center
03:31PM 31.0286 -86.6114 299° West 410 472 28,000  Level Jacksonville Center
03:32PM 31.0850 -86.7469 296° West 415 478 28,000  Level Jacksonville Center
03:33PM 31.1900 -86.9758 298° West 418 481 28,000  Level Atlanta Center
03:34PM 31.2414 -87.0939 297° West 418 481 28,000  Level Atlanta Center
03:35PM 31.2928 -87.2122 297° West 413 475 28,000  Level Atlanta Center
03:36PM 31.3458 -87.3333 297° West 413 475 28,000  Level Atlanta Center
03:37PM 31.3947 -87.4542 295° West 413 475 28,000  Level Atlanta Center
03:38PM 31.4478 -87.5731 298° West 413 475 28,000  Level Atlanta Center
03:39PM 31.4986 -87.6944 296° West 413 475 28,000  Level Atlanta Center
03:40PM 31.5511 -87.8183 296° West 413 475 28,000 -660 Level Atlanta Center
03:42PM 31.6442 -88.0467 296° West 406 467 26,100 -720 Descending Memphis Center
03:43PM 31.6900 -88.1578 296° West 400 460 26,000 -60 Descending Memphis Center
03:44PM 31.7358 -88.2714 295° West 389 448 26,000  Level Memphis Center
03:45PM 31.7858 -88.3853 297° West 389 448 26,000  Level Memphis Center
03:46PM 31.8292 -88.4967 295° West 383 441 26,000  Level Memphis Center
03:47PM 31.8747 -88.6083 296° West 383 441 26,000  Level Memphis Center
03:48PM 31.9200 -88.7225 295° West 383 441 26,000  Level Memphis Center
03:49PM 31.9650 -88.8219 298° West 383 441 26,000  Level Memphis Center
03:50PM 32.0019 -88.9389 290° West 383 441 26,000  Level Memphis Center
03:51PM 32.0136 -89.0564 277° West 372 428 26,000  Level Memphis Center
03:52PM 32.0275 -89.1764 278° West 372 428 26,000  Level Memphis Center
03:53PM 32.0392 -89.3036 276° West 372 428 26,000  Level Memphis Center
03:54PM 32.0525 -89.4261 277° West 378 435 26,000  Level Memphis Center
03:55PM 32.0639 -89.5508 276° West 384 442 26,000  Level Memphis Center
03:56PM 32.0772 -89.6733 277° West 384 442 26,000  Level Memphis Center
03:57PM 32.0903 -89.7983 277° West 389 448 26,000  Level Memphis Center
03:58PM 32.1011 -89.9208 276° West 389 448 26,000  Level Memphis Center
03:59PM 32.1142 -90.0458 277° West 389 448 26,000  Level Memphis Center
04:00PM 32.1269 -90.1733 277° West 389 448 26,000  Level Memphis Center
04:01PM 32.1375 -90.3008 276° West 389 448 26,000  Level Memphis Center
04:02PM 32.1519 -90.4261 278° West 389 448 26,000  Level Memphis Center
04:03PM 32.1603 -90.5511 275° West 389 448 26,000  Level Memphis Center
04:04PM 32.1725 -90.6839 276° West 394 453 26,000  Level Memphis Center
04:05PM 32.1867 -90.8114 278° West 394 453 26,000  Level Memphis Center
04:07PM 32.2083 -91.0539 276° West 392 451 26,000  Level Houston Center
04:08PM 32.2194 -91.1822 276° West 394 453 26,000  Level Houston Center
04:09PM 32.2303 -91.3111 276° West 397 457 26,000  Level Houston Center
04:10PM 32.2428 -91.4639 276° West 393 452 26,000  Level Houston Center
04:11PM 32.2525 -91.5908 275° West 390 449 26,000  Level Houston Center
04:13PM 32.2631 -91.7164 276° West 388 447 26,000  Level Houston Center
04:14PM 32.2731 -91.8425 275° West 386 444 26,000  Level Houston Center
04:15PM 32.2828 -91.9644 275° West 380 437 26,000  Level Houston Center
04:16PM 32.2922 -92.0897 275° West 374 430 26,000  Level Houston Center
04:17PM 32.3014 -92.2119 275° West 374 430 26,000  Level Houston Center
04:18PM 32.3125 -92.3583 275° West 374 430 26,000  Level Houston Center
04:19PM 32.3219 -92.4822 275° West 377 434 26,000  Level Houston Center
04:20PM 32.3311 -92.6039 275° West 376 433 26,000  Level Houston Center
04:21PM 32.3408 -92.7200 276° West 373 429 26,000  Level Houston Center
04:22PM 32.3411 -92.8650 270° West 374 430 26,000  Level Houston Center
04:23PM 32.3392 -92.9606 269° West 370 426 26,000  Level Fort Worth Center
04:24PM 32.3353 -93.0861 268° West 370 426 26,000  Level Fort Worth Center
04:25PM 32.3311 -93.2069 268° West 363 418 26,000  Level Fort Worth Center
04:26PM 32.3289 -93.3297 269° West 358 412 26,000  Level Fort Worth Center
04:27PM 32.3222 -93.4506 266° West 366 421 26,000  Level Fort Worth Center
04:28PM 32.3197 -93.5736 269° West 371 427 26,000  Level Fort Worth Center
04:29PM 32.3150 -93.6894 267° West 366 421 26,000  Level Fort Worth Center
04:30PM 32.3100 -93.8100 267° West 366 421 26,000  Level Fort Worth Center
04:31PM 32.3031 -93.9356 266° West 372 428 26,000  Level Fort Worth Center
04:32PM 32.2983 -94.0611 267° West 372 428 26,000  Level Fort Worth Center
04:33PM 32.2928 -94.1767 267° West 372 428 26,000  Level Fort Worth Center
04:34PM 32.2856 -94.2975 266° West 367 422 26,000  Level Fort Worth Center
04:35PM 32.2781 -94.4181 266° West 367 422 26,000  Level Fort Worth Center
04:36PM 32.2281 -94.5206 240° Southwest 351 404 26,000  Level Fort Worth Center
04:37PM 32.1758 -94.6056 234° Southwest 351 404 26,000  Level Fort Worth Center
04:38PM 32.1153 -94.7031 234° Southwest 361 415 26,000  Level Fort Worth Center
04:39PM 32.0694 -94.8072 243° Southwest 361 415 26,000  Level Fort Worth Center
04:40PM 32.0783 -94.9347 275° West 366 421 26,000  Level Fort Worth Center
04:41PM 32.0914 -95.0692 277° West 389 448 26,000  Level Fort Worth Center
04:42PM 32.1019 -95.1989 276° West 394 453 26,000  Level Fort Worth Center
04:43PM 32.1147 -95.3261 277° West 405 466 26,000  Level Fort Worth Center
04:44PM 32.1231 -95.4633 274° West 405 466 26,000 -120 Level Fort Worth Center
04:45PM 32.1336 -95.5981 275° West 410 472 25,800 -600 Descending Fort Worth Center
04:46PM 32.1458 -95.7278 276° West 410 472 24,800 -1,020 Descending Fort Worth Center
04:47PM 32.1558 -95.8528 275° West 395 455 23,800 -1,680 Descending Fort Worth Center
04:48PM 32.1656 -95.9728 275° West 367 422 21,500 -2,400 Descending Fort Worth Center
04:49PM 32.1772 -96.0903 277° West 355 409 19,100 -2,520 Descending Fort Worth Center
04:50PM 32.1886 -96.1983 277° West 347 399 16,500 -2,700 Descending Fort Worth Center
04:51PM 32.2417 -96.2883 305° West 347 399 13,800 -2,460 Descending Fort Worth Center
04:52PM 32.3050 -96.3639 315° West 329 379 11,700 -1,440 Descending Fort Worth Center
04:53PM 32.3683 -96.4369 316° Northwest 324 373 11,000 -780 Descending Fort Worth Center
04:54PM 32.4272 -96.5053 316° Northwest 300 345 10,200 -1,200 Descending Fort Worth Center
04:55PM 32.4778 -96.5761 310° West 288 331 8,700 -1,440 Descending Fort Worth Center
04:56PM 32.5097 -96.6572 295° West 273 314 7,300 -1,500 Descending Fort Worth Center
04:57PM 32.5394 -96.7381 294° West 273 314 5,700 -1,200 Descending Fort Worth Center
04:58PM 32.5731 -96.8144 298° West 268 308 5,000 -360 Descending Fort Worth Center
04:59PM 32.6214 -96.8683 317° Northwest 263 303 5,000 -420 Level Fort Worth Center
05:00PM 32.6739 -96.9372 312° West 258 297 4,200 -960 Descending Fort Worth Center
05:01PM 32.7219 -96.9861 319° Northwest 258 297 3,100 -900 Descending Fort Worth Center
05:02PM 32.7806 -97.0206 334° Northwest 231 266 2,400 -720 Descending Fort Worth Center